Hermi

Alter: 64 Jahre
Land: Österreich
Schnopser seit: 10.12.2017
Fairness Rating: 96%
Gespielte Bummerl: 461
Davon gewonnen: 162
Siegesrate: 35%
ELO: 816

Turnierteilnahmen

Bisher noch kein Turnier gespielt


Die letzten 25 gespielten Bummerl

Zeit Gegner Ergebnis Ende Credits Elo
19:48:47 am 18.05.2018 spacetrip 9:5 normal - 816 (11)
19:24:00 am 15.05.2018 *Magerethe Ehrnhofer 7:6 autocont-normal - 805 (6)
19:18:07 am 15.05.2018 SM-A520F 3:7 normal - 799 (-7)
11:53:58 am 15.05.2018 jediwels 7:2 normal - 806 (15)
11:50:01 am 15.05.2018 Pauline Kasutnik 3:7 normal - 791 (-9)
22:26:04 am 14.05.2018 Max von da Rax 0:7 normal - 800 (-6)
22:23:34 am 14.05.2018 SJ 0:8 normal - 806 (-12)
22:18:54 am 14.05.2018 Hiki 7:1 normal - 818 (14)
22:12:42 am 14.05.2018 eierbär 8:6 normal - 804 (15)
22:06:44 am 14.05.2018 Andy 4:9 normal - 789 (-6)
15:19:28 am 14.05.2018 HH1984 7:4 normal - 795 (13)
15:09:51 am 14.05.2018 Dasusi 4:7 normal - 782 (-6)
15:04:11 am 14.05.2018 Hubert66 2:8 normal - 788 (-5)
14:48:48 am 14.05.2018 Bummerlkaiser 7:4 normal - 793 (11)
15:26:29 am 13.05.2018 Hr. Werner 1:9 normal - 782 (-5)
23:06:16 am 12.05.2018 Wolfgang Mayer 4:7 normal - 787 (-9)
22:59:49 am 12.05.2018 Astrid 7:3 normal - 796 (12)
22:55:05 am 12.05.2018 René 3:7 normal - 784 (-6)
19:30:05 am 12.05.2018 Martin Gotzi 7:2 normal - 790 (12)
18:01:47 am 12.05.2018 Szilágyi Sándor 6:8 normal - 778 (-9)
16:34:16 am 12.05.2018 HPM 6:7 normal - 787 (-7)
12:29:13 am 12.05.2018 *Pepi 7:6 autocont-normal - 794 (9)
12:18:03 am 12.05.2018 Stacksi 3:7 normal - 785 (-7)
12:10:25 am 12.05.2018 Knacki 0:8 normal - 792 (-9)
17:42:08 am 11.05.2018 Eveline Brunner 7:3 normal - 801 (9)